< < Back
Terminal Aerodrome Forecast


Current Version              Previous Versions:   1  2  3  4  5  6  7  8  9  

Terminal Aerodrome Forecast

908
FTUS42 KILM 031700
TAFFLO
TAF
KFLO 031739Z 0318/0418 08007KT P6SM -RA OVC015
     FM040000 VRB03KT 3SM -DZ BR OVC004
     FM041400 21010G18KT P6SM SCT004 BKN008 OVC015
     FM041600 23014G22KT P6SM SCT020 BKN050=



Latest METAR

672
SAUS70 KWBC 032200 RRV
MTRFLO
METAR KFLO 032153Z 01005KT 3SM BR BKN005 OVC011 06/04 A3021 RMK AO2
RAE34 SLP229 P0001 T00560039


USA.gov is the U.S. government's official web portal to all federal, state and local government web resources and services.